WEATHER DATA

YESTERDAY
Time Temp. Dewp. Hum. Wind dir Wind speed Wind gust Bar. 1h Prec. 24h Prec.
00:01 9.4 7.8 90 232 1.4 2.2 1024.6 0.0000 0.0000
00:21 9.5 7.9 90 234 0.8 1.4 1024.6 0.0000 0.0000
00:31 9.3 7.6 89 247 0.6 1.1 1024.6 0.0000 0.0000
00:41 9.3 7.7 90 245 1.1 1.7 1024.6 0.0000 0.0000
01:01 8.8 7.1 89 236 1.1 1.9 1024.5 0.0000 0.0000
01:11 8.7 7.2 90 231 0.8 1.7 1024.5 0.0000 0.0000
01:22 8.6 7.1 90 237 1.1 1.9 1024.5 0.0000 0.0000
01:31 8.7 7.3 91 229 1.1 2.2 1024.4 0.0000 0.0000
01:41 8.8 7.4 91 239 0.8 1.4 1024.4 0.0000 0.0000
01:52 8.8 7.4 91 234 1.1 1.9 1024.5 0.0000 0.0000
02:02 8.8 7.4 91 238 1.1 1.9 1024.5 0.0000 0.0000
02:11 8.6 7.1 90 236 1.1 1.9 1024.4 0.0000 0.0000
02:22 8.3 6.8 90 241 1.1 1.7 1024.4 0.0000 0.0000
02:32 8.1 6.7 91 255 0.6 1.4 1024.2 0.0000 0.0000
02:42 8.2 6.8 91 254 0.6 1.4 1024.4 0.0000 0.0000
02:51 8.1 6.7 91 250 0.6 1.7 1024.2 0.0000 0.0000
03:02 8.2 7 92 242 0.6 1.1 1024.1 0.0000 0.0000
03:12 8.1 6.9 92 251 0.6 1.1 1024.1 0.0000 0.0000
03:22 8.2 7 92 270 0.6 1.1 1024.1 0.0000 0.0000
03:32 8.3 7.1 92 246 0.6 1.1 1024.1 0.0000 0.0000
03:42 8.4 7.2 92 246 0.6 1.1 1024.1 0.0000 0.0000
03:52 8.2 7 92 242 0.6 1.4 1024.1 0.0000 0.0000
04:02 8 6.8 92 241 0.6 1.7 1024.1 0.0000 0.0000
04:13 7.9 6.7 92 245 0.6 1.9 1024 0.0000 0.0000
04:22 7.8 6.6 92 259 0.8 1.4 1024 0.0000 0.0000
04:32 7.8 6.6 92 305 0.3 0.8 1024 0.0000 0.0000
04:43 7.7 6.5 92 270 0.3 0.8 1024 0.0000 0.0000
04:53 7.5 6.3 92 327 0.6 1.7 1024 0.0000 0.0000
05:02 7.6 6.5 93 305 0.3 1.4 1024 0.0000 0.0000
05:12 7.6 6.5 93 270 0.6 1.9 1024.1 0.0000 0.0000
05:23 7.3 6.2 93 239 0.3 0.8 1024.1 0.0000 0.0000
05:33 7.2 6.1 93 270 0.3 0.8 1024.2 0.0000 0.0000
05:42 7.2 6.3 94 330 0.3 0.6 1024.2 0.0000 0.0000
05:53 7.2 6.3 94 315 0.3 0.8 1024.2 0.0000 0.0000
06:03 7.1 6.2 94 270 0.3 0.8 1024.2 0.0000 0.0000
06:13 6.9 5.8 93 270 0.3 1.1 1024.1 0.0000 0.0000
06:23 6.6 5.7 94 270 0.3 0.8 1024.2 0.0000 0.0000
06:33 6.7 5.8 94 270 0.3 0.8 1024.2 0.0000 0.0000
06:43 6.8 5.9 94 325 0.3 1.1 1024.1 0.0000 0.0000
06:53 6.6 5.7 94 270 0.6 1.1 1024.2 0.0000 0.0000
07:04 6.5 5.6 94 243 0.6 0.8 1024.2 0.0000 0.0000
07:13 6.4 5.5 94 270 0.3 0.8 1024.2 0.0000 0.0000
07:23 6.4 5.7 95 270 0.6 2.2 1024.2 0.0000 0.0000
07:33 6.5 5.8 95 335 0.6 1.4 1024.1 0.0000 0.0000
07:44 6.2 5.5 95 335 0.6 1.4 1024.2 0.0000 0.0000
07:53 6.2 5.5 95 324 0.6 1.4 1024.2 0.0000 0.0000
08:03 5.9 5.2 95 161 0.6 1.4 1024.4 0.0000 0.0000
08:14 5.8 5.1 95 18 0.6 1.7 1024.4 0.0000 0.0000
08:24 5.8 5.1 95 315 0.3 0.8 1024.5 0.0000 0.0000
08:33 5.9 5.2 95 270 0.3 1.1 1024.5 0.0000 0.0000
08:43 6 5.3 95 206 0.3 1.1 1024.5 0.0000 0.0000
08:54 6.2 5.6 96 225 0.3 1.1 1024.6 0.0000 0.0000
09:04 6.5 5.9 96 240 0.6 1.9 1024.7 0.0000 0.0000
09:14 7.1 6.5 96 202 0.3 0.8 1024.8 0.0000 0.0000
09:24 7.8 7.2 96 204 0.6 1.4 1024.7 0.0000 0.0000
09:34 8.3 7.7 96 0 0.3 1024.7 0.0000 0.0000
09:44 8.5 8.1 97 214 0.6 1.1 1024.7 0.0000 0.0000
09:54 8.8 8.2 96 219 0.3 1.4 1024.7 0.0000 0.0000
10:04 9 8.4 96 203 0.6 1.4 1024.6 0.0000 0.0000
10:14 9.4 8.8 96 315 0.3 1.4 1024.6 0.0000 0.0000
10:24 10 9.4 96 203 0.3 0.8 1024.5 0.0000 0.0000
10:35 10.7 9.9 95 239 0.3 1.1 1024.5 0.0000 0.0000
10:45 11.2 9.8 91 333 0.6 1.4 1024.4 0.0000 0.0000
10:54 11.6 10.2 91 225 0.3 0.8 1024.5 0.0000 0.0000
11:04 12.4 11 91 315 0.6 1.4 1024.4 0.0000 0.0000
11:15 13.2 11.6 90 348 0.3 1.4 1024.4 0.0000 0.0000
11:25 14 11.9 87 216 0.6 1.1 1024.4 0.0000 0.0000
11:45 15.7 12.6 82 213 1.1 2.2 1024.2 0.0000 0.0000
11:55 16.4 12 75 250 1.1 2.2 1024.2 0.0000 0.0000
12:05 17 11.5 70 229 1.4 3.3 1024.1 0.0000 0.0000
12:15 17.2 11 67 225 2.2 5 1024 0.0000 0.0000
12:25 17.4 11.4 68 212 1.7 4.7 1023.9 0.0000 0.0000
12:38 17.8 11.4 66 224 2.5 7.2 1023.7 0.0000 0.0000
12:49 17.7 11 65 224 3.1 5.8 1023.6 0.0000 0.0000
12:59 17.9 11.2 65 225 1.1 4.4 1023.5 0.0000 0.0000
13:09 18.1 11.2 64 220 1.4 3.6 1023.5 0.0000 0.0000
13:19 18.3 11.1 63 232 1.7 4.4 1023.3 0.0000 0.0000
13:29 18.2 11 63 221 3.6 6.9 1023.4 0.0000 0.0000
13:39 18.2 11.3 64 224 2.2 4.4 1023.3 0.0000 0.0000
13:49 18.6 11.4 63 235 1.4 4.2 1023.2 0.0000 0.0000
13:59 18.5 11.1 62 224 2.2 4.7 1023.2 0.0000 0.0000
14:09 18.7 11.5 63 225 1.7 4.7 1023.1 0.0000 0.0000
14:19 18.9 11.2 61 230 1.9 5.6 1023 0.0000 0.0000
14:30 19.1 11.4 61 221 1.4 2.8 1023 0.0000 0.0000
14:40 19.2 11.8 62 230 1.1 2.8 1023 0.0000 0.0000
14:49 19.4 11.7 61 215 1.4 2.2 1022.9 0.0000 0.0000
14:59 19.6 11.9 61 233 1.4 3.3 1023 0.0000 0.0000
15:10 19.5 11.3 59 196 1.7 3.3 1022.7 0.0000 0.0000
15:20 19.3 10.8 58 212 1.4 2.8 1022.7 0.0000 0.0000
15:29 19.3 11.1 59 213 1.4 2.5 1022.7 0.0000 0.0000
15:40 19.4 11.2 59 217 1.4 2.8 1022.6 0.0000 0.0000
15:50 19.4 11.2 59 241 1.1 3.6 1022.6 0.0000 0.0000
16:00 19.1 11.2 60 303 0.6 1.1 1022.6 0.0000 0.0000
16:10 18.8 10.9 60 234 0.8 3.6 1022.6 0.0000 0.0000
16:20 18.6 11.2 62 299 0.8 1.4 1022.6 0.0000 0.0000
16:30 18.4 11 62 255 0.6 2.2 1022.6 0.0000 0.0000
16:40 18.2 10.8 62 249 0.8 2.5 1022.5 0.0000 0.0000
16:50 17.9 10.8 63 310 0.8 2.5 1022.6 0.0000 0.0000
17:00 17.7 10.8 64 315 0.6 1.7 1022.5 0.0000 0.0000
17:10 17.7 10.8 64 225 0.6 1.4 1022.5 0.0000 0.0000
17:20 17.5 10.6 64 344 0.3 0.8 1022.6 0.0000 0.0000
17:30 17.3 10.4 64 319 0.6 1.7 1022.5 0.0000 0.0000
17:40 17.1 10.7 66 270 0.3 0.8 1022.5 0.0000 0.0000
17:50 16.9 10.3 65 318 0.8 1.4 1022.6 0.0000 0.0000
18:01 16.5 10.1 66 270 0.6 2.8 1022.5 0.0000 0.0000
18:10 16.4 10.3 67 270 0.6 1.4 1022.5 0.0000 0.0000
18:20 16.1 10.2 68 270 0.6 2.2 1022.6 0.0000 0.0000
18:31 16.1 10.2 68 340 0.6 1.1 1022.6 0.0000 0.0000
18:41 15.8 10.1 69 315 0.3 0.8 1022.6 0.0000 0.0000
18:50 15.6 10.2 70 330 0.3 1.1 1022.9 0.0000 0.0000
19:00 15.2 10 71 270 0.3 0.8 1023 0.0000 0.0000
19:11 14.9 9.9 72 204 0.3 0.8 1023.1 0.0000 0.0000
19:21 14.7 9.9 73 315 0.3 1.1 1023.1 0.0000 0.0000
19:31 14.8 10.2 74 315 0.3 0.8 1023.2 0.0000 0.0000
19:41 14.8 10.4 75 3 0.3 1.4 1023.2 0.0000 0.0000
19:51 14.8 10.4 75 270 0.3 1.4 1023.2 0.0000 0.0000
20:01 14.5 10.3 76 270 0.6 1.7 1023.3 0.0000 0.0000
20:11 14.4 10.2 76 270 0.3 0.8 1023.3 0.0000 0.0000
20:21 14.3 10.5 78 317 0.6 1.4 1023.3 0.0000 0.0000
20:31 14.3 10.5 78 315 0.3 1.4 1023.3 0.0000 0.0000
20:41 14.3 10.5 78 323 0.3 0.6 1023.1 0.0000 0.0000
20:51 14 10.2 78 270 0.3 1.1 1023.2 0.0000 0.0000
21:01 14 10.6 80 324 0.6 1.4 1023.2 0.0000 0.0000
21:11 14 10.4 79 321 0.6 1.1 1023.2 0.0000 0.0000
21:21 13.7 10.1 79 323 0.6 1.4 1023.2 0.0000 0.0000
21:32 13.4 10 80 306 0.8 1.7 1023.2 0.0000 0.0000
21:41 13.3 10.1 81 319 0.6 1.4 1023.2 0.0000 0.0000
21:51 13.3 10.1 81 319 0.8 1.7 1023.4 0.0000 0.0000
22:02 13.1 9.9 81 300 0.6 1.1 1023.4 0.0000 0.0000
22:12 12.9 9.7 81 234 0.8 1.4 1023.4 0.0000 0.0000
22:22 12.3 9.1 81 225 0.6 1.4 1023.3 0.0000 0.0000
22:31 12.1 9.3 83 244 0.8 1.9 1023.3 0.0000 0.0000
22:42 12.4 10 85 307 0.8 1.7 1023.3 0.0000 0.0000
22:52 12.4 10 85 316 0.8 1.4 1023.4 0.0000 0.0000
23:02 12.5 10 85 315 0.6 1.4 1023.4 0.0000 0.0000
23:12 12.4 9.8 84 317 0.8 1.7 1023.4 0.0000 0.0000
23:22 12.1 9.7 85 288 0.6 1.1 1023.4 0.0000 0.0000
23:32 12 9.6 85 241 0.8 1.7 1023.3 0.0000 0.0000
23:42 11.6 9.2 85 238 1.1 1.7 1023.3 0.0000 0.0000
23:52 11.5 9.4 87 247 1.1 1.9 1023.3 0.0000

DAY STATISTIC

2020-10-30
TEMPERATURE
AVERAGE
12.3
HIGH
19.6
14:59
LOW
5.8
08:14
PRESSURE
AVERAGE
1023.7
HIGH
1024.8
09:14
LOW
1022.5
16:40
DEWPOINT
AVERAGE
8.9
HIGH
12.6
11:45
LOW
5.1
08:14
HUMIDITY
AVERAGE
81
HIGH
97
09:44
LOW
58
15:20
WIND SPEED
AVERAGE
0.8
HIGH
3.6
13:29
WIND GUST
AVERAGE
1.8
HIGH
7.2
12:38
WIND DIRECTION
PREVAILING
SW
42.9%
N
3.6
NE
0.0
E
0.0
SE
0.0
S
5.0
SW
42.9
W
21.4
NW
26.4
PRECIPITATION
RAIN HOUR
0.0
RAIN DAY
0.0
TEMPERATURE (°C)
LOW
5.8
HIGH
19.6
AVERAGE
12.3
PRESSURE (hpa)
LOW
1022.5
HIGH
1024.8
AVERAGE
1023.7
DEVICE